To NAV CANADA Home Page Login to a new session Search on AWWS site Disclaimer Vers la page française équivalente Tips FAQ What's new on the site To the Forecasts and Observations / NOTAM section To "File a Flight Plan" website Publications and other links Update of the User's profile FIC Telephone Numbers My Weather Data Folder Route Weather Data Regional Weather Data Local Weather Data To the Forecasts and Observations / NOTAM section
Request Generated 10/21/2018 at 06:27:57 UTC . Weather information available at that time is displayed.

METAR/TAF

FORT SIMPSON/NT    

METAR CYFS 210600Z 34009G15KT 15SM SCT065 BKN095 03/M01 A2981 RMK SC3AC2 SLP104=
METAR CYFS 210500Z 36011KT 15SM SCT095 05/M00 A2976 RMK AC3 PRESRR SLP088=
METAR CYFS 210400Z 34017KT 15SM FEW085 SCT100 07/M00 A2970 RMK AC2AC2 SLP068=

TAF CYFS 210538Z 2106/2118 33010KT P6SM SCT090
BECMG 2110/2112 VRB03KT
RMK NXT FCST BY 211200Z=
Your time UTC time
Weather data provided by Environment Canada and NAV CANADA